Time;durP1;ratioP1;P1;durP2;ratioP2;P2;SDS_P1;SDS_P2;PMS_P1;PMS_P2;Temp;Humidity;BMP_temperature;BMP_pressure;BME280_temperature;BME280_humidity;BME280_pressure;Samples;Min_cycle;Max_cycle;Signal;HPM_P1;HPM_P2
2021/12/20 00:02:04;;;;;;;0.00;0.00;;;5.60;99.90;;;;;;5019993;28;20464;-65
2021/12/20 00:04:30;;;;;;;0.00;0.00;;;5.60;99.90;;;;;;5020696;28;20045;-64
2021/12/20 00:06:55;;;;;;;0.00;0.00;;;5.50;99.90;;;;;;5019205;28;20441;-64
2021/12/20 00:09:21;;;;;;;0.00;0.00;;;5.50;99.90;;;;;;5019007;28;20516;-64
2021/12/20 00:11:47;;;;;;;0.00;0.00;;;5.40;99.90;;;;;;5019982;28;20036;-66
2021/12/20 00:14:12;;;;;;;0.00;0.00;;;5.40;99.90;;;;;;5019299;28;20051;-64
2021/12/20 00:16:38;;;;;;;0.00;0.00;;;5.30;99.90;;;;;;5019084;28;20079;-64
2021/12/20 00:19:04;;;;;;;0.00;0.00;;;5.20;99.90;;;;;;5018592;28;20057;-65
2021/12/20 00:21:30;;;;;;;0.00;0.00;;;5.20;99.90;;;;;;5020698;28;20170;-64
2021/12/20 00:23:55;;;;;;;0.00;0.00;;;5.10;99.90;;;;;;5018623;28;20042;-64
2021/12/20 00:26:21;;;;;;;0.00;0.00;;;5.00;99.90;;;;;;5017739;28;20045;-64
2021/12/20 00:28:46;;;;;;;0.00;0.00;;;5.30;99.90;;;;;;5012004;28;20037;-65
2021/12/20 00:31:12;;;;;;;0.00;0.00;;;4.80;99.90;;;;;;5005282;28;20052;-64
2021/12/20 00:33:38;;;;;;;0.00;0.00;;;4.80;99.90;;;;;;4982646;28;20140;-64
2021/12/20 00:36:06;;;;;;;0.00;0.00;;;4.50;99.90;;;;;;4997258;28;20614;-65
2021/12/20 00:41:17;;;;;;;0.00;0.00;;;4.70;99.90;;;;;;4997639;28;20046;-64
2021/12/20 00:43:43;;;;;;;0.00;0.00;;;5.30;99.90;;;;;;4997583;28;20701;-65
2021/12/20 00:46:09;;;;;;;0.00;0.00;;;4.50;99.90;;;;;;4999016;28;20457;-64
2021/12/20 00:48:35;;;;;;;0.00;0.00;;;4.40;99.90;;;;;;4998215;28;20061;-64
2021/12/20 00:51:01;;;;;;;0.00;0.00;;;4.40;99.90;;;;;;4997801;28;20131;-64
2021/12/20 00:53:26;;;;;;;0.00;0.00;;;3.50;99.90;;;;;;4998273;28;20112;-64
2021/12/20 00:55:52;;;;;;;0.00;0.00;;;4.70;99.90;;;;;;4998103;28;20721;-64
2021/12/20 00:58:18;;;;;;;0.00;0.00;;;4.50;99.90;;;;;;4997139;28;20046;-64
2021/12/20 01:00:47;;;;;;;0.00;0.00;;;4.40;99.90;;;;;;4998359;28;20129;-64
2021/12/20 01:03:16;;;;;;;0.00;0.00;;;4.40;99.90;;;;;;4999432;28;20084;-64
2021/12/20 01:05:42;;;;;;;0.00;0.00;;;4.30;99.90;;;;;;4997882;28;20054;-65
2021/12/20 01:08:09;;;;;;;0.00;0.00;;;4.30;99.90;;;;;;4997354;28;20072;-64
2021/12/20 01:10:37;;;;;;;0.00;0.00;;;4.20;99.90;;;;;;4998918;28;20053;-64
2021/12/20 01:13:04;;;;;;;0.00;0.00;;;4.20;99.90;;;;;;5013439;28;20151;-65
2021/12/20 01:15:43;;;;;;;0.00;0.00;;;4.20;99.90;;;;;;4997909;28;20057;-64
2021/12/20 01:18:09;;;;;;;0.00;0.00;;;4.10;99.90;;;;;;4997767;28;20147;-64
2021/12/20 01:20:36;;;;;;;0.00;0.00;;;4.00;99.90;;;;;;4997567;28;20101;-64
2021/12/20 01:23:02;;;;;;;0.00;0.00;;;4.00;99.90;;;;;;4998975;28;20042;-64
2021/12/20 01:25:28;;;;;;;0.00;0.00;;;3.90;99.90;;;;;;4997125;28;20136;-64
2021/12/20 01:27:54;;;;;;;0.00;0.00;;;3.80;99.90;;;;;;5001148;28;20175;-64
2021/12/20 01:30:22;;;;;;;0.00;0.00;;;3.80;99.90;;;;;;5005131;28;20050;-64
2021/12/20 01:32:48;;;;;;;0.00;0.00;;;3.70;99.90;;;;;;4997444;28;20127;-64
2021/12/20 01:35:15;;;;;;;0.00;0.00;;;3.60;99.90;;;;;;4996246;28;20053;-64
2021/12/20 01:37:41;;;;;;;0.00;0.00;;;3.50;99.90;;;;;;4998878;28;20058;-65
2021/12/20 01:40:10;;;;;;;0.00;0.00;;;3.40;99.90;;;;;;4997337;28;20054;-65
2021/12/20 01:42:36;;;;;;;0.00;0.00;;;3.40;99.90;;;;;;4996692;28;20140;-65
2021/12/20 01:45:11;;;;;;;0.00;0.00;;;3.30;99.90;;;;;;4997890;28;20137;-64
2021/12/20 01:47:42;;;;;;;0.00;0.00;;;3.30;99.90;;;;;;4997161;28;20050;-65
2021/12/20 01:50:16;;;;;;;0.00;0.00;;;3.30;99.90;;;;;;4996631;28;20512;-64
2021/12/20 01:52:43;;;;;;;0.00;0.00;;;3.20;99.90;;;;;;4998356;28;20516;-64
2021/12/20 01:55:16;;;;;;;0.00;0.00;;;3.20;99.90;;;;;;4997166;28;20054;-64
2021/12/20 01:57:42;;;;;;;0.00;0.00;;;3.20;99.90;;;;;;4995112;28;20401;-65
2021/12/20 02:00:15;;;;;;;0.00;0.00;;;3.20;99.90;;;;;;4997356;28;20052;-65
2021/12/20 02:02:43;;;;;;;0.00;0.00;;;3.20;99.90;;;;;;4996963;28;20081;-65
2021/12/20 02:05:21;;;;;;;0.00;0.00;;;4.00;99.90;;;;;;5006428;22;20053;-64
2021/12/20 02:07:53;;;;;;;0.00;0.00;;;3.10;99.90;;;;;;4990136;28;20528;-64
2021/12/20 02:10:19;;;;;;;0.00;0.00;;;3.10;99.90;;;;;;4996876;28;20050;-64
2021/12/20 02:12:46;;;;;;;0.00;0.00;;;3.10;99.90;;;;;;4997180;28;20042;-65
2021/12/20 02:15:12;;;;;;;0.00;0.00;;;3.00;99.90;;;;;;4996124;28;20046;-64
2021/12/20 02:17:39;;;;;;;0.00;0.00;;;3.80;99.90;;;;;;4997147;28;20463;-64
2021/12/20 02:20:06;;;;;;;0.00;0.00;;;2.90;99.90;;;;;;4998063;28;20052;-65
2021/12/20 02:22:32;;;;;;;0.00;0.00;;;2.80;99.90;;;;;;4996776;28;20096;-64
2021/12/20 02:24:57;;;;;;;0.00;0.00;;;2.80;99.90;;;;;;4997091;28;20081;-65
2021/12/20 02:27:23;;;;;;;0.00;0.00;;;2.80;99.90;;;;;;4997589;28;20038;-65
2021/12/20 02:30:15;;;;;;;0.00;0.00;;;2.70;99.90;;;;;;4984030;28;20119;-65
2021/12/20 02:38:26;;;;;;;0.00;0.00;;;2.70;99.90;;;;;;4997807;28;20045;-65
2021/12/20 02:41:08;;;;;;;0.00;0.00;;;2.60;99.90;;;;;;4996155;28;20096;-67
2021/12/20 02:43:39;;;;;;;0.00;0.00;;;2.60;99.90;;;;;;4995950;28;20045;-68
2021/12/20 02:46:23;;;;;;;0.00;0.00;;;2.60;99.90;;;;;;4995739;28;20050;-67
2021/12/20 02:48:49;;;;;;;0.00;0.00;;;2.60;99.90;;;;;;4996573;28;20097;-68
2021/12/20 02:51:14;;;;;;;0.00;0.00;;;2.60;99.90;;;;;;4998066;28;20076;-67
2021/12/20 02:53:40;;;;;;;0.00;0.00;;;2.50;99.90;;;;;;4997196;28;20141;-67
2021/12/20 02:56:06;;;;;;;0.00;0.00;;;4.00;99.90;;;;;;4996504;28;20781;-68
2021/12/20 02:58:31;;;;;;;0.00;0.00;;;2.50;99.90;;;;;;4996412;28;20775;-68
2021/12/20 03:00:57;;;;;;;0.00;0.00;;;2.40;99.90;;;;;;4997728;28;20092;-67
2021/12/20 03:03:25;;;;;;;0.00;0.00;;;2.80;99.90;;;;;;4996979;28;20061;-67
2021/12/20 03:05:50;;;;;;;0.00;0.00;;;2.40;99.90;;;;;;4996097;28;20129;-67
2021/12/20 03:08:16;;;;;;;0.00;0.00;;;2.30;99.90;;;;;;4997657;28;20211;-67
2021/12/20 03:10:42;;;;;;;0.00;0.00;;;2.30;99.90;;;;;;4999079;28;20046;-68
2021/12/20 03:13:10;;;;;;;0.00;0.00;;;2.30;99.90;;;;;;5000736;28;20050;-68
2021/12/20 03:15:35;;;;;;;0.00;0.00;;;2.20;99.90;;;;;;5001641;28;20708;-68
2021/12/20 03:18:01;;;;;;;0.00;0.00;;;2.20;99.90;;;;;;5001282;28;20122;-67
2021/12/20 03:20:27;;;;;;;0.00;0.00;;;3.40;99.90;;;;;;4999345;28;20112;-68
2021/12/20 03:22:52;;;;;;;0.00;0.00;;;2.00;99.90;;;;;;5000068;28;20052;-67
2021/12/20 03:25:18;;;;;;;0.05;0.05;;;2.00;99.90;;;;;;5001699;28;20676;-68
2021/12/20 03:27:44;;;;;;;0.00;0.00;;;2.30;99.90;;;;;;4999292;28;20610;-68
2021/12/20 03:30:12;;;;;;;0.00;0.00;;;1.90;99.90;;;;;;4990105;28;20460;-65
2021/12/20 03:32:38;;;;;;;0.00;0.00;;;1.90;99.90;;;;;;4982203;28;20050;-67
2021/12/20 03:35:05;;;;;;;0.00;0.00;;;1.80;99.90;;;;;;4981656;28;20035;-66
2021/12/20 03:37:31;;;;;;;0.00;0.00;;;1.80;99.90;;;;;;4982236;28;20050;-66
2021/12/20 03:39:57;;;;;;;0.00;0.00;;;1.70;99.90;;;;;;4980132;28;20042;-66
2021/12/20 03:42:23;;;;;;;0.00;0.00;;;1.70;99.90;;;;;;4981348;28;20186;-66
2021/12/20 03:44:48;;;;;;;0.00;0.00;;;1.60;99.90;;;;;;4980427;28;20516;-65
2021/12/20 03:47:15;;;;;;;0.00;0.00;;;1.70;99.90;;;;;;4980224;28;20081;-66
2021/12/20 03:49:42;;;;;;;0.00;0.00;;;2.30;99.90;;;;;;4979847;28;21048;-66
2021/12/20 03:52:08;;;;;;;0.00;0.00;;;1.60;99.90;;;;;;4981246;28;20052;-66
2021/12/20 03:54:34;;;;;;;0.00;0.00;;;1.50;99.90;;;;;;4981112;28;20077;-66
2021/12/20 03:57:00;;;;;;;0.00;0.00;;;1.60;99.90;;;;;;4980804;28;20750;-66
2021/12/20 03:59:28;;;;;;;0.00;0.00;;;1.60;99.90;;;;;;4980414;28;20046;-66
2021/12/20 04:01:54;;;;;;;0.00;0.00;;;1.60;99.90;;;;;;4980700;28;20034;-66
2021/12/20 04:04:20;;;;;;;0.00;0.00;;;1.60;99.90;;;;;;4980969;28;20117;-66
2021/12/20 04:06:46;;;;;;;0.00;0.00;;;2.70;99.90;;;;;;4994875;28;20137;-66
2021/12/20 04:09:11;;;;;;;0.00;0.00;;;1.60;99.90;;;;;;4981335;28;20431;-66
2021/12/20 04:11:37;;;;;;;0.00;0.00;;;1.60;99.90;;;;;;4980945;28;20053;-66
2021/12/20 04:14:03;;;;;;;0.00;0.00;;;1.60;99.90;;;;;;4979469;28;20042;-66
2021/12/20 04:16:29;;;;;;;0.00;0.00;;;1.90;99.90;;;;;;4980315;28;20401;-65
2021/12/20 04:18:55;;;;;;;0.00;0.00;;;1.50;99.90;;;;;;4980770;28;20402;-66
2021/12/20 04:21:21;;;;;;;0.00;0.00;;;2.50;99.90;;;;;;4980101;28;20057;-66
2021/12/20 04:23:48;;;;;;;0.00;0.00;;;1.80;99.90;;;;;;4980343;28;20038;-66
2021/12/20 04:26:14;;;;;;;0.00;0.00;;;1.50;99.90;;;;;;4978659;28;20062;-65
2021/12/20 04:28:40;;;;;;;0.00;0.00;;;1.40;99.90;;;;;;4984270;28;20047;-66
2021/12/20 04:31:06;;;;;;;0.00;0.00;;;1.60;99.90;;;;;;4985821;28;20129;-66
2021/12/20 04:33:32;;;;;;;0.00;0.00;;;1.50;99.90;;;;;;4980288;28;20108;-65
2021/12/20 04:35:58;;;;;;;0.00;0.00;;;1.50;99.90;;;;;;4980460;28;20046;-65
2021/12/20 04:38:26;;;;;;;0.00;0.00;;;1.50;99.90;;;;;;4980186;28;20085;-65
2021/12/20 04:40:52;;;;;;;0.00;0.00;;;1.50;99.90;;;;;;4980272;28;20057;-65
2021/12/20 04:43:18;;;;;;;0.00;0.00;;;1.80;99.90;;;;;;4978620;28;20185;-65
2021/12/20 04:45:43;;;;;;;0.00;0.00;;;1.40;99.90;;;;;;4980185;28;20050;-65
2021/12/20 04:48:09;;;;;;;0.00;0.00;;;1.40;99.90;;;;;;4980126;28;20134;-66
2021/12/20 04:50:35;;;;;;;0.00;0.00;;;1.40;99.90;;;;;;4980100;28;20050;-66
2021/12/20 04:53:01;;;;;;;0.00;0.00;;;1.30;99.90;;;;;;4994765;28;20084;-69
2021/12/20 04:55:27;;;;;;;0.00;0.00;;;1.20;99.90;;;;;;4980007;28;20051;-66
2021/12/20 04:57:54;;;;;;;0.00;0.00;;;1.00;99.90;;;;;;4994345;28;20619;-66
2021/12/20 05:00:24;;;;;;;0.00;0.00;;;1.10;99.90;;;;;;4980021;28;20050;-66
2021/12/20 05:02:50;;;;;;;0.00;0.00;;;1.00;99.90;;;;;;4980066;28;20053;-66
2021/12/20 05:05:17;;;;;;;0.00;0.00;;;1.00;99.90;;;;;;4994650;28;20502;-66
2021/12/20 05:07:44;;;;;;;0.00;0.00;;;1.00;99.90;;;;;;4979532;28;20567;-66
2021/12/20 05:10:13;;;;;;;0.00;0.00;;;1.00;99.90;;;;;;4978750;28;20084;-66
2021/12/20 05:12:40;;;;;;;0.00;0.00;;;1.00;99.90;;;;;;4979352;28;20086;-66
2021/12/20 05:15:07;;;;;;;0.00;0.00;;;0.90;99.90;;;;;;4979659;28;20648;-66
2021/12/20 05:17:34;;;;;;;0.00;0.00;;;0.90;99.90;;;;;;4979755;28;20458;-68
2021/12/20 05:20:00;;;;;;;0.00;0.00;;;2.20;99.90;;;;;;4978235;28;20054;-67
2021/12/20 05:22:26;;;;;;;0.00;0.00;;;0.90;99.90;;;;;;4994919;28;20508;-65
2021/12/20 05:24:52;;;;;;;0.00;0.00;;;1.00;99.90;;;;;;4978120;28;20050;-66
2021/12/20 05:27:17;;;;;;;0.00;0.00;;;0.80;99.90;;;;;;4993061;28;20043;-66
2021/12/20 05:29:43;;;;;;;0.00;0.00;;;0.80;99.90;;;;;;4990143;28;20112;-66
2021/12/20 05:32:09;;;;;;;0.00;0.00;;;0.80;99.90;;;;;;4978139;28;20054;-66
2021/12/20 05:34:36;;;;;;;0.00;0.00;;;0.70;99.90;;;;;;4979566;28;20422;-66
2021/12/20 05:37:02;;;;;;;0.00;0.00;;;0.70;99.90;;;;;;4993578;28;20061;-68
2021/12/20 05:39:28;;;;;;;0.00;0.00;;;0.60;99.90;;;;;;4977979;28;20622;-68
2021/12/20 05:41:54;;;;;;;0.00;0.00;;;0.70;99.90;;;;;;4977759;28;20129;-68
2021/12/20 05:44:19;;;;;;;0.00;0.00;;;0.60;99.90;;;;;;4978458;28;20050;-68
2021/12/20 05:46:45;;;;;;;0.00;0.00;;;0.50;99.90;;;;;;4976993;28;20104;-66
2021/12/20 05:49:10;;;;;;;0.00;0.00;;;0.50;99.90;;;;;;4979198;28;20058;-66
2021/12/20 05:51:36;;;;;;;0.00;0.00;;;0.50;99.90;;;;;;4994359;28;20046;-66
2021/12/20 05:54:02;;;;;;;0.00;0.00;;;0.40;99.90;;;;;;4994174;28;20053;-66
2021/12/20 05:56:28;;;;;;;0.00;0.00;;;0.40;99.90;;;;;;4978834;28;20046;-66
2021/12/20 05:58:53;;;;;;;0.00;0.00;;;0.40;99.90;;;;;;4976967;28;20575;-66
2021/12/20 06:01:19;;;;;;;0.00;0.00;;;0.20;99.90;;;;;;4993851;28;20563;-66
2021/12/20 06:03:44;;;;;;;0.00;0.00;;;0.30;99.90;;;;;;4993771;28;20042;-66
2021/12/20 06:06:12;;;;;;;0.00;0.00;;;0.20;99.90;;;;;;4977853;28;20054;-68
2021/12/20 06:08:37;;;;;;;0.00;0.00;;;0.20;99.90;;;;;;4979289;28;20050;-68
2021/12/20 06:11:03;;;;;;;0.00;0.00;;;0.10;99.90;;;;;;4977297;28;20069;-68
2021/12/20 06:13:29;;;;;;;0.00;0.00;;;0.10;99.90;;;;;;4978334;28;20052;-68
2021/12/20 06:15:54;;;;;;;0.00;0.00;;;0.10;99.90;;;;;;4976763;28;20746;-68
2021/12/20 06:18:20;;;;;;;0.00;0.00;;;0.10;99.90;;;;;;4993743;28;20129;-68
2021/12/20 06:20:46;;;;;;;0.00;0.00;;;0.10;99.90;;;;;;4993657;28;20054;-68
2021/12/20 06:23:12;;;;;;;0.00;0.00;;;0.00;99.90;;;;;;4977798;28;20590;-66
2021/12/20 06:25:38;;;;;;;0.00;0.00;;;0.10;99.90;;;;;;4978860;28;20181;-66
2021/12/20 06:28:04;;;;;;;0.00;0.00;;;0.10;99.90;;;;;;4980004;28;20124;-66
2021/12/20 06:30:29;;;;;;;0.00;0.00;;;0.00;99.90;;;;;;4987718;28;20054;-66
2021/12/20 06:32:55;;;;;;;0.00;0.00;;;0.00;99.90;;;;;;4977541;28;20058;-66
2021/12/20 06:35:21;;;;;;;0.00;0.00;;;0.00;99.90;;;;;;4978394;28;20038;-66
2021/12/20 06:37:59;;;;;;;0.00;0.00;;;0.00;99.90;;;;;;4978198;28;20038;-66
2021/12/20 06:40:26;;;;;;;0.00;0.00;;;0.00;99.90;;;;;;4976299;28;20720;-66
2021/12/20 06:42:51;;;;;;;0.00;0.00;;;0.00;99.90;;;;;;4977639;28;20784;-66
2021/12/20 06:45:17;;;;;;;0.00;0.00;;;0.10;99.90;;;;;;4995581;28;20042;-66
2021/12/20 06:47:43;;;;;;;0.00;0.00;;;0.10;99.90;;;;;;4982342;28;20043;-66
2021/12/20 06:50:09;;;;;;;0.00;0.00;;;0.20;99.90;;;;;;4981548;28;20046;-66
2021/12/20 06:52:34;;;;;;;0.00;0.00;;;0.20;99.90;;;;;;4980992;28;20078;-66
2021/12/20 06:55:00;;;;;;;0.00;0.00;;;0.20;99.90;;;;;;4982540;28;20108;-66
2021/12/20 06:57:26;;;;;;;0.00;0.00;;;0.20;99.90;;;;;;4980127;28;20537;-66
2021/12/20 06:59:52;;;;;;;0.00;0.00;;;0.20;99.90;;;;;;4981200;28;20066;-66
2021/12/20 07:02:18;;;;;;;0.00;0.00;;;0.10;99.90;;;;;;4982144;28;20053;-66
2021/12/20 07:04:43;;;;;;;0.00;0.00;;;1.80;99.90;;;;;;4996540;28;20047;-66
2021/12/20 07:07:09;;;;;;;0.00;0.00;;;0.10;99.90;;;;;;4996730;28;20054;-66
2021/12/20 07:09:35;;;;;;;0.00;0.00;;;0.00;99.90;;;;;;4981197;28;20050;-66
2021/12/20 07:12:03;;;;;;;0.00;0.00;;;0.00;99.90;;;;;;4981866;28;20174;-66
2021/12/20 07:14:29;;;;;;;0.00;0.00;;;0.00;99.90;;;;;;4980948;28;20523;-66
2021/12/20 07:16:55;;;;;;;0.00;0.00;;;0.00;99.90;;;;;;4981470;28;20048;-66
2021/12/20 07:19:21;;;;;;;0.00;0.00;;;0.90;99.90;;;;;;4996143;28;20133;-66
2021/12/20 07:21:47;;;;;;;0.00;0.00;;;0.00;99.90;;;;;;4996892;28;20133;-66
2021/12/20 07:24:12;;;;;;;0.00;0.00;;;-0.10;99.90;;;;;;4996788;28;20052;-66
2021/12/20 07:26:41;;;;;;;0.00;0.00;;;-0.10;99.90;;;;;;4981254;28;20482;-66
2021/12/20 07:29:07;;;;;;;0.00;0.00;;;-0.10;99.90;;;;;;4988738;28;20049;-66
2021/12/20 07:31:33;;;;;;;0.00;0.00;;;-0.20;99.90;;;;;;4984475;28;20053;-66
2021/12/20 07:33:59;;;;;;;0.00;0.00;;;-0.30;99.90;;;;;;4981886;28;20038;-66
2021/12/20 07:36:24;;;;;;;0.00;0.00;;;-0.10;99.90;;;;;;4979364;28;20291;-66
2021/12/20 07:38:51;;;;;;;0.00;0.00;;;1.40;99.90;;;;;;4981324;28;20113;-66
2021/12/20 07:41:18;;;;;;;0.00;0.00;;;-0.10;99.90;;;;;;4979877;28;20047;-66
2021/12/20 07:43:45;;;;;;;0.00;0.00;;;-0.10;99.90;;;;;;4995584;28;20125;-66
2021/12/20 07:46:11;;;;;;;0.00;0.00;;;-0.10;99.90;;;;;;4980350;28;20046;-66
2021/12/20 07:48:36;;;;;;;0.00;0.00;;;-0.10;99.90;;;;;;4981104;28;20034;-66
2021/12/20 07:51:03;;;;;;;0.00;0.00;;;-0.20;99.90;;;;;;4981537;28;20122;-66
2021/12/20 07:53:28;;;;;;;0.00;0.00;;;0.00;99.90;;;;;;4981794;28;20563;-66
2021/12/20 07:55:54;;;;;;;0.00;0.00;;;-0.10;99.90;;;;;;4978905;28;20278;-66
2021/12/20 07:58:20;;;;;;;0.00;0.00;;;-0.20;99.90;;;;;;4979689;28;20532;-66
2021/12/20 08:00:46;;;;;;;0.00;0.00;;;-0.20;99.90;;;;;;4980693;28;20058;-66
2021/12/20 08:03:12;;;;;;;0.00;0.00;;;-0.20;99.90;;;;;;4980081;28;20041;-66
2021/12/20 08:05:38;;;;;;;0.00;0.00;;;-0.20;99.90;;;;;;4980953;28;20432;-66
2021/12/20 08:08:05;;;;;;;0.00;0.00;;;-0.20;99.90;;;;;;4980883;28;20057;-67
2021/12/20 08:10:32;;;;;;;0.00;0.00;;;-0.20;99.90;;;;;;4981450;28;20456;-66
2021/12/20 08:12:58;;;;;;;0.00;0.00;;;-0.80;99.90;;;;;;4994182;28;20084;-67
2021/12/20 08:15:26;;;;;;;0.00;0.00;;;-0.10;99.90;;;;;;4980801;28;20453;-67
2021/12/20 08:17:52;;;;;;;0.00;0.00;;;0.00;99.90;;;;;;4980461;28;20050;-66
2021/12/20 08:20:19;;;;;;;0.00;0.00;;;0.00;99.90;;;;;;4980309;28;20046;-66
2021/12/20 08:22:45;;;;;;;0.00;0.00;;;0.00;99.90;;;;;;4994566;28;20081;-67
2021/12/20 08:25:12;;;;;;;0.00;0.00;;;0.10;99.90;;;;;;4986353;28;20108;-69
2021/12/20 08:27:38;;;;;;;0.00;0.00;;;0.10;99.90;;;;;;4995355;28;20050;-67
2021/12/20 08:30:05;;;;;;;0.00;0.00;;;0.60;99.90;;;;;;4994464;28;20042;-68
2021/12/20 08:32:32;;;;;;;0.00;0.00;;;1.10;99.90;;;;;;4997758;28;20604;-67
2021/12/20 08:34:58;;;;;;;0.00;0.00;;;0.20;99.90;;;;;;4998224;28;20053;-67
2021/12/20 08:37:23;;;;;;;0.00;0.00;;;0.30;99.90;;;;;;4997930;28;20050;-67
2021/12/20 08:39:49;;;;;;;0.00;0.00;;;1.00;99.90;;;;;;4999473;28;20042;-67
2021/12/20 08:42:15;;;;;;;0.00;0.00;;;0.50;99.90;;;;;;4993452;28;20129;-66
2021/12/20 08:44:41;;;;;;;0.00;0.00;;;0.60;99.90;;;;;;4978536;28;20532;-66
2021/12/20 08:47:06;;;;;;;0.00;0.00;;;0.60;99.90;;;;;;4979638;28;20220;-67
2021/12/20 08:49:32;;;;;;;0.00;0.00;;;0.70;99.90;;;;;;4980238;28;20084;-65
2021/12/20 08:51:59;;;;;;;0.00;0.00;;;2.30;99.90;;;;;;4979599;28;20046;-67
2021/12/20 08:54:27;;;;;;;0.00;0.00;;;0.80;99.90;;;;;;4989556;28;20068;-66
2021/12/20 08:56:53;;;;;;;0.00;0.00;;;0.90;99.90;;;;;;4996877;28;20057;-66
2021/12/20 08:59:19;;;;;;;0.00;0.00;;;1.10;99.90;;;;;;4996537;28;20065;-66
2021/12/20 09:01:45;;;;;;;0.00;0.00;;;1.00;99.90;;;;;;4997521;28;20697;-66
2021/12/20 09:04:10;;;;;;;0.00;0.00;;;1.10;99.90;;;;;;4999321;28;20045;-67
2021/12/20 09:06:39;;;;;;;0.00;0.00;;;1.00;99.90;;;;;;4998567;28;20575;-66
2021/12/20 09:09:10;;;;;;;0.00;0.00;;;1.10;99.90;;;;;;4996540;28;20222;-67
2021/12/20 09:11:36;;;;;;;0.00;0.00;;;2.30;99.90;;;;;;4997734;28;20048;-66
2021/12/20 09:14:02;;;;;;;0.00;0.00;;;1.30;99.90;;;;;;4997189;28;20400;-67
2021/12/20 09:16:28;;;;;;;0.00;0.00;;;1.40;99.90;;;;;;4997932;28;20041;-66
2021/12/20 09:18:54;;;;;;;0.00;0.00;;;1.40;99.90;;;;;;4992136;28;20683;-67
2021/12/20 09:21:20;;;;;;;0.00;0.00;;;1.50;99.90;;;;;;4978855;28;20198;-66
2021/12/20 09:23:45;;;;;;;0.00;0.00;;;1.60;99.90;;;;;;4977847;28;20053;-65
2021/12/20 09:26:12;;;;;;;0.00;0.00;;;1.70;99.90;;;;;;4979253;28;20066;-65
2021/12/20 09:28:38;;;;;;;0.00;0.00;;;1.90;99.90;;;;;;4981417;28;20038;-66
2021/12/20 09:31:05;;;;;;;0.00;0.00;;;2.00;99.90;;;;;;4985256;28;20038;-66
2021/12/20 09:33:31;;;;;;;0.00;0.00;;;2.20;99.90;;;;;;4979384;28;20046;-65
2021/12/20 09:35:57;;;;;;;0.00;0.00;;;2.40;99.90;;;;;;4993265;28;20417;-66
2021/12/20 09:38:23;;;;;;;0.00;0.00;;;3.20;99.90;;;;;;4978549;28;20060;-66
2021/12/20 09:43:40;;;;;;;0.00;0.00;;;5.70;99.90;;;;;;4976142;28;20750;-65
2021/12/20 09:46:06;;;;;;;0.00;0.00;;;5.80;99.90;;;;;;4977519;28;20050;-66
2021/12/20 09:48:34;;;;;;;0.00;0.00;;;6.50;99.90;;;;;;4979280;28;20749;-64
2021/12/20 09:51:02;;;;;;;0.00;0.00;;;8.10;99.90;;;;;;4978767;28;20046;-64
2021/12/20 09:53:28;;;;;;;0.00;0.00;;;7.60;99.90;;;;;;4978637;28;20054;-63
2021/12/20 09:55:54;;;;;;;0.00;0.00;;;7.80;99.90;;;;;;4978544;28;20050;-64
2021/12/20 09:58:21;;;;;;;0.00;0.00;;;8.10;99.90;;;;;;4976501;28;20517;-61
2021/12/20 10:00:48;;;;;;;0.00;0.00;;;9.10;99.90;;;;;;4995334;28;20104;-64
2021/12/20 10:03:16;;;;;;;0.00;0.00;;;9.00;99.90;;;;;;4996760;28;20064;-64
2021/12/20 10:05:41;;;;;;;0.00;0.00;;;9.90;99.90;;;;;;4992479;28;20046;-64
2021/12/20 10:08:19;;;;;;;0.00;0.00;;;10.00;99.90;;;;;;4997285;28;20044;-64
2021/12/20 10:10:48;;;;;;;0.00;0.00;;;10.20;99.90;;;;;;4996545;28;20097;-64
2021/12/20 10:13:22;;;;;;;0.00;0.00;;;10.60;99.90;;;;;;4997237;28;20042;-64
2021/12/20 10:15:48;;;;;;;0.00;0.00;;;10.50;99.90;;;;;;4997621;28;20127;-64
2021/12/20 10:18:14;;;;;;;0.00;0.00;;;11.00;99.90;;;;;;4995415;28;20077;-63
2021/12/20 10:20:41;;;;;;;0.00;0.00;;;11.30;99.90;;;;;;4997329;28;20050;-64
2021/12/20 10:23:19;;;;;;;0.00;0.00;;;11.80;99.90;;;;;;4997831;28;20137;-64
2021/12/20 10:25:52;;;;;;;0.00;0.00;;;12.50;99.90;;;;;;4976187;28;20064;-64
2021/12/20 10:28:24;;;;;;;0.20;0.17;;;12.80;99.90;;;;;;4980103;28;20393;-64
2021/12/20 10:30:57;;;;;;;0.00;0.00;;;13.00;99.90;;;;;;4988855;28;20057;-63
2021/12/20 10:33:24;;;;;;;0.00;0.00;;;13.20;99.90;;;;;;4997178;28;20042;-64
2021/12/20 10:35:53;;;;;;;0.00;0.00;;;13.60;99.90;;;;;;4997763;28;20416;-64
2021/12/20 10:38:23;;;;;;;0.00;0.00;;;14.20;99.90;;;;;;4997590;28;20124;-63
2021/12/20 10:41:07;;;;;;;0.00;0.00;;;14.80;99.90;;;;;;4997054;28;20459;-63
2021/12/20 10:43:37;;;;;;;0.00;0.00;;;14.80;99.90;;;;;;4995186;28;20041;-64
2021/12/20 10:46:16;;;;;;;0.00;0.00;;;14.60;99.90;;;;;;4996518;28;20042;-63
2021/12/20 10:48:45;;;;;;;0.00;0.00;;;14.80;99.90;;;;;;4997807;28;20073;-62
2021/12/20 10:51:44;;;;;;;0.00;0.00;;;14.60;99.90;;;;;;4997948;28;20424;-62
2021/12/20 10:54:14;;;;;;;0.00;0.00;;;14.40;99.90;;;;;;4988761;28;20100;-64
2021/12/20 10:56:47;;;;;;;0.00;0.00;;;14.00;99.90;;;;;;4997646;28;20469;-63
2021/12/20 10:59:12;;;;;;;0.00;0.00;;;13.20;99.90;;;;;;4995557;28;20053;-64
2021/12/20 11:04:35;;;;;;;0.10;0.10;;;12.90;99.90;;;;;;4997196;28;20052;-64
2021/12/20 11:09:37;;;;;;;0.00;0.00;;;13.00;99.90;;;;;;4997964;28;20046;-64
2021/12/20 11:12:12;;;;;;;0.00;0.00;;;12.60;99.90;;;;;;4994806;28;20046;-64
2021/12/20 11:14:41;;;;;;;0.25;0.25;;;12.60;99.90;;;;;;4997998;28;20645;-64
2021/12/20 11:17:09;;;;;;;0.00;0.00;;;12.30;99.90;;;;;;4996028;28;20069;-62
2021/12/20 11:19:36;;;;;;;0.00;0.00;;;12.60;99.90;;;;;;4995493;28;20471;-62
2021/12/20 11:22:16;;;;;;;0.00;0.00;;;12.70;99.90;;;;;;4996919;28;20054;-61
2021/12/20 11:24:42;;;;;;;0.00;0.00;;;12.30;99.90;;;;;;4997698;28;20408;-62
2021/12/20 11:27:23;;;;;;;0.00;0.00;;;12.40;99.90;;;;;;4996028;28;20061;-62
2021/12/20 11:29:51;;;;;;;0.00;0.00;;;12.50;99.90;;;;;;4984467;28;20046;-61
2021/12/20 11:32:19;;;;;;;0.00;0.00;;;12.40;99.90;;;;;;4999741;28;20152;-64
2021/12/20 11:34:45;;;;;;;0.00;0.00;;;12.50;99.90;;;;;;5000989;28;20049;-62
2021/12/20 11:37:13;;;;;;;0.00;0.00;;;12.50;99.90;;;;;;5001221;28;20042;-62
2021/12/20 11:39:40;;;;;;;0.00;0.00;;;12.40;99.90;;;;;;5000960;28;20042;-63
2021/12/20 11:42:07;;;;;;;0.00;0.00;;;12.40;99.90;;;;;;4999068;28;20048;-63
2021/12/20 11:44:35;;;;;;;0.00;0.00;;;12.20;99.90;;;;;;4999378;28;20085;-63
2021/12/20 11:47:06;;;;;;;0.00;0.00;;;11.80;99.90;;;;;;5001255;28;20121;-62
2021/12/20 11:49:33;;;;;;;0.00;0.00;;;11.60;99.90;;;;;;5000788;28;20053;-66
2021/12/20 11:52:00;;;;;;;0.00;0.00;;;11.40;99.90;;;;;;5000883;28;20117;-62
2021/12/20 11:54:53;;;;;;;0.00;0.00;;;11.20;99.90;;;;;;5000844;28;20052;-62
2021/12/20 11:57:35;;;;;;;0.00;0.00;;;10.80;99.90;;;;;;4998228;28;20467;-62
2021/12/20 12:00:19;;;;;;;0.00;0.00;;;10.70;99.90;;;;;;4983110;28;20173;-63
2021/12/20 12:02:47;;;;;;;0.00;0.00;;;10.30;99.90;;;;;;4998861;28;20049;-62
2021/12/20 12:05:26;;;;;;;0.00;0.00;;;10.20;99.90;;;;;;5000638;28;20120;-63
2021/12/20 12:07:52;;;;;;;0.00;0.00;;;10.10;99.90;;;;;;4999667;28;20763;-64
2021/12/20 12:10:27;;;;;;;0.00;0.00;;;9.60;99.90;;;;;;4999311;28;20042;-64
2021/12/20 12:12:59;;;;;;;;;;;9.40;99.90;;;;;;4999700;28;20058;-64
2021/12/20 12:15:38;;;;;;;0.00;0.00;;;8.90;99.90;;;;;;4999199;28;20015;-64
2021/12/20 12:18:05;;;;;;;0.00;0.00;;;9.40;99.90;;;;;;4998940;28;20050;-66
2021/12/20 12:20:52;;;;;;;0.00;0.00;;;9.10;99.90;;;;;;5000270;28;20120;-67
2021/12/20 12:23:26;;;;;;;0.00;0.00;;;8.60;99.90;;;;;;4998538;28;20142;-66
2021/12/20 12:25:55;;;;;;;0.00;0.00;;;8.60;99.90;;;;;;4999698;28;20569;-65
2021/12/20 12:28:26;;;;;;;0.00;0.00;;;8.60;99.90;;;;;;4992010;28;20078;-66
2021/12/20 12:31:03;;;;;;;0.00;0.00;;;8.70;99.90;;;;;;4983573;28;20054;-65
2021/12/20 12:33:32;;;;;;;0.00;0.00;;;8.60;99.90;;;;;;4991419;28;20404;-66
2021/12/20 12:36:01;;;;;;;0.00;0.00;;;8.60;99.90;;;;;;4997166;28;20061;-65
2021/12/20 12:38:34;;;;;;;0.00;0.00;;;8.50;99.90;;;;;;4979763;28;20145;-65
2021/12/20 12:41:07;;;;;;;0.00;0.00;;;8.60;99.90;;;;;;4977480;28;20107;-65
2021/12/20 12:43:52;;;;;;;0.00;0.00;;;8.20;99.90;;;;;;4979599;28;20076;-66
2021/12/20 12:46:36;;;;;;;;;;;8.30;99.90;;;;;;4998394;28;20074;-66
2021/12/20 12:49:22;;;;;;;0.00;0.00;;;8.40;99.90;;;;;;4998357;28;20473;-66
2021/12/20 12:51:47;;;;;;;0.00;0.00;;;7.90;99.90;;;;;;4990773;28;20141;-66
2021/12/20 12:54:32;;;;;;;0.00;0.00;;;9.00;99.90;;;;;;4995722;28;20136;-66
2021/12/20 12:57:18;;;;;;;0.00;0.00;;;7.60;99.90;;;;;;4997114;28;20140;-65
2021/12/20 12:59:50;;;;;;;0.00;0.00;;;7.40;99.90;;;;;;4988934;28;20123;-65
2021/12/20 13:02:31;;;;;;;0.00;0.00;;;7.30;99.90;;;;;;4983093;28;20429;-66
2021/12/20 13:04:59;;;;;;;0.00;0.00;;;7.30;99.90;;;;;;4996366;28;20060;-66
2021/12/20 13:07:34;;;;;;;0.00;0.00;;;7.30;99.90;;;;;;4998990;28;20049;-65
2021/12/20 13:10:04;;;;;;;0.00;0.00;;;7.20;99.90;;;;;;4999168;28;20436;-66
2021/12/20 13:17:36;;;;;;;;;;;7.10;99.90;;;;;;5000167;28;20060;-66
2021/12/20 13:23:16;;;;;;;0.00;0.00;;;6.80;99.90;;;;;;4998179;28;20061;-66
2021/12/20 13:25:54;;;;;;;0.00;0.00;;;6.70;99.90;;;;;;4997710;28;20107;-67